Indian Wells, CA (92210)

3:23 PM PST on December 02, 2016 (GMT -0800)
Indian Wells Tennis Garden | | Change Station
Active Advisory: Wind Advisory Active Notice: Local Storm Report

Elev 148 ft 33.72 °N, 116.31 °W | Updated 12 seconds ago

Clear
Clear
65.1 °F
Feels Like 65.1 °F
N
6.7
Wind Variable Wind from WNW
Gusts 9.8 mph

Today
High -- | Low -- °F
--% Chance of Precip.
Yesterday
High -- | Low -- °F
Precip. -- in
Pressure 29.99 in
Visibility 10.0 miles
Clouds Clear
Dew Point 22 °F
Humidity 19%
Rainfall 0.00 in
Snow Depth Not available.
6:33 AM 4:36 PM
Waxing Crescent, 11% visible
METAR KTRM 022252Z AUTO 34010KT 10SM CLR 19/M12 A2998 RMK AO2 SLP153 T01941122 TSNO
Pressure 29.99 in
Visibility 10.0 miles
Clouds Clear
Dew Point 22 °F
Humidity 19%
Rainfall 0.00 in
Snow Depth Not available.
6:33 AM 4:36 PM
Waxing Crescent, 11% visible
METAR KTRM 022252Z AUTO 34010KT 10SM CLR 19/M12 A2998 RMK AO2 SLP153 T01941122 TSNO

10-Day Weather Forecast

Almanac

Astronomy

Dec. 02, 2016 Rise Set
Actual Time
Civil Twilight
Nautical Twilight
Astronomical Twilight
Moon
Length of Visible Light
Length of Day
Tomorrow will be .
, % of the Moon is Illuminated

Today's Extremes

State Highs State Lows

Community

WunderPhotos

Upload Photos

1,955,378 photos uploaded!

WunderBlog® & News

Nearby

Air Quality

  Air Quality AQ Index Pollutant
Not available.

Snow Depth

Station Depth Elevation

Earthquake Activity

City Distance Mag. Time & Date
Minimum magnitude displayed is 2.5.

Coastal Water Temperatures

Place Temperature

Stations

Nearby Weather Stations

Station Location Temp. Windchill Dew Point Humidity Wind Precip. Elev Updated Type
                   

Watches & Warnings

Wind Advisory
Issued: 1:02 PM PST Dec. 2, 2016 – National Weather Service

... Wind Advisory remains in effect until 2 PM PST Saturday...

* winds... north to northeast 20 to 30 mph with gusts t0 50 mph...
strongest along the Little San Bernardino Mountains.

* Timing... through Saturday afternoon.

* Location... Coachella Valley including the San Gorgonio Pass...
and the San Diego County deserts.

* Impacts... hazardous driving conditions for high profile
vehicles. Blowing dust could reduce visibility at times.

* Outlook... lighter winds Saturday night and Sunday.

Precautionary/preparedness actions...

A Wind Advisory means that winds of 35 mph are expected. Winds
this strong can make driving difficult... especially for high
profile vehicles. Use extra caution.